Ios I — 9HA3242 — position and weather

sailwx.info

Track history (hours):
 
Tides and Currents Weather Stations Pressure Air Temp Water Temp Dewpoint Dewpoint Depression Visibility Wind Speed Wind Dir Waves Ship Positions

Ios I

Last reported at 2017-Nov-24 04:16 UTC. Time now 2017-Nov-24 09:27 UTC.
Position N 36°09' W 005°23'.

Length 91 m; draft 6.2 m.

MMSI: 229332000.

Date/timePositionNaut miles runAvg speedWind from/ knotsBaromVisibWave heightAir tempDewpointWater temp
2017-Nov-24 04:16N 36°09' W 005°23'3 6.6
2017-Nov-24 03:48N 36°06' W 005°23'3 8.8
2017-Nov-24 03:30N 36°04' W 005°22'5 9.7
2017-Nov-24 02:58N 35°59' W 005°25'  
2017-Nov-18 21:37N 36°07' W 005°22'0 1.6
2017-Nov-18 21:29N 36°07' W 005°22'0 0.2
2017-Nov-18 20:50N 36°07' W 005°22'0 0.1
2017-Nov-18 20:26N 36°07' W 005°22'  
2017-Nov-15 16:05N 36°01' W 005°23'1 9.6
2017-Nov-15 16:00N 36°00' W 005°24'610.4
2017-Nov-15 15:29N 35°56' W 005°28'  
Track history (hours):
 
Tides and Currents Weather Stations Pressure Air Temp Water Temp Dewpoint Dewpoint Depression Visibility Wind Speed Wind Dir Waves Ship Positions

Ios I

Last reported at 2017-Nov-24 04:16 UTC. Time now 2017-Nov-24 09:27 UTC.
Position N 36°09' W 005°23'.

Length 91 m; draft 6.2 m.

MMSI: 229332000.

Date/timePositionNaut miles runAvg speedWind from/ knotsBaromVisibWave heightAir tempDewpointWater temp
2017-Nov-24 04:16N 36°09' W 005°23'3 6.6
2017-Nov-24 03:48N 36°06' W 005°23'3 8.8
2017-Nov-24 03:30N 36°04' W 005°22'5 9.7
2017-Nov-24 02:58N 35°59' W 005°25'  
2017-Nov-18 21:37N 36°07' W 005°22'0 1.6
2017-Nov-18 21:29N 36°07' W 005°22'0 0.2
2017-Nov-18 20:50N 36°07' W 005°22'0 0.1
2017-Nov-18 20:26N 36°07' W 005°22'  
2017-Nov-15 16:05N 36°01' W 005°23'1 9.6
2017-Nov-15 16:00N 36°00' W 005°24'610.4
2017-Nov-15 15:29N 35°56' W 005°28'  

Dump ship's entire track history